Time;durP1;ratioP1;P1;durP2;ratioP2;P2;SDS_P1;SDS_P2;PMS_P1;PMS_P2;Temp;Humidity;BMP_temperature;BMP_pressure;BME280_temperature;BME280_humidity;BME280_pressure;Samples;Min_cycle;Max_cycle;Signal;HPM_P1;HPM_P2
2024/01/18 00:01:35;;;;;;;6.63;3.13;;;;;;;3.97;74.10;90351.84;2045357;70;20512;-82
2024/01/18 00:04:01;;;;;;;7.32;3.40;;;;;;;3.92;74.02;90366.91;2041812;70;20181;-85
2024/01/18 00:06:27;;;;;;;6.78;3.88;;;;;;;3.98;73.91;90369.97;2044966;70;20672;-87
2024/01/18 00:08:52;;;;;;;5.72;3.10;;;;;;;4.06;73.15;90365.50;2044842;70;20238;-86
2024/01/18 00:11:19;;;;;;;4.85;2.63;;;;;;;3.86;74.58;90364.56;2044289;70;20708;-83
2024/01/18 00:13:45;;;;;;;5.93;3.40;;;;;;;4.06;73.89;90373.13;2045020;70;20155;-81
2024/01/18 00:16:10;;;;;;;4.28;2.80;;;;;;;4.08;72.89;90371.19;2045275;70;20174;-83
2024/01/18 00:18:36;;;;;;;4.68;2.28;;;;;;;4.10;74.12;90378.88;2045135;70;20518;-83
2024/01/18 00:21:03;;;;;;;7.07;2.97;;;;;;;4.15;73.48;90380.50;2041927;70;20250;-86
2024/01/18 00:23:28;;;;;;;6.65;3.00;;;;;;;4.22;73.05;90389.88;2044428;70;20178;-82
2024/01/18 00:25:54;;;;;;;7.18;3.40;;;;;;;4.21;72.82;90382.84;2044943;70;20143;-82
2024/01/18 00:28:20;;;;;;;5.72;2.33;;;;;;;4.21;72.96;90383.56;2044561;70;20616;-84
2024/01/18 00:30:45;;;;;;;4.25;2.88;;;;;;;4.12;73.86;90389.41;2045111;70;20153;-80
2024/01/18 00:33:11;;;;;;;6.35;3.55;;;;;;;4.22;73.17;90393.38;2045038;70;20274;-81
2024/01/18 00:35:37;;;;;;;3.53;2.28;;;;;;;4.19;73.83;90391.13;2044980;70;20157;-85
2024/01/18 00:38:02;;;;;;;3.25;2.08;;;;;;;4.23;71.87;90392.03;2044596;70;20185;-85
2024/01/18 00:40:28;;;;;;;5.35;2.47;;;;;;;4.28;73.58;90401.31;2045387;70;20147;-80
2024/01/18 00:42:54;;;;;;;5.20;3.00;;;;;;;4.12;72.94;90381.75;2044359;70;20193;-83
2024/01/18 00:45:19;;;;;;;5.00;3.00;;;;;;;4.31;73.38;90414.69;2044909;70;20237;-80
2024/01/18 00:47:45;;;;;;;3.78;2.50;;;;;;;4.37;73.25;90422.59;2045009;70;20138;-86
2024/01/18 00:50:11;;;;;;;5.60;3.00;;;;;;;4.35;72.96;90419.72;2044747;70;20177;-81
2024/01/18 00:52:36;;;;;;;7.88;3.47;;;;;;;4.36;73.22;90418.38;2044392;70;20580;-83
2024/01/18 00:55:02;;;;;;;6.10;3.50;;;;;;;4.35;73.47;90422.50;2046124;70;20149;-83
2024/01/18 00:57:28;;;;;;;7.40;3.60;;;;;;;4.39;73.69;90450.53;2044353;70;20163;-81
2024/01/18 00:59:55;;;;;;;4.45;2.75;;;;;;;4.34;74.29;90449.63;2044808;70;20131;-83
2024/01/18 01:02:20;;;;;;;9.10;3.67;;;;;;;4.22;74.12;90437.22;2044439;70;20495;-82
2024/01/18 01:04:46;;;;;;;5.38;3.30;;;;;;;4.35;75.35;90450.34;2044704;70;20139;-84
2024/01/18 01:07:12;;;;;;;7.95;3.55;;;;;;;4.25;74.96;90447.81;2044681;70;20295;-84
2024/01/18 01:09:37;;;;;;;7.43;3.60;;;;;;;4.20;75.14;90440.63;2044686;70;20154;-81
2024/01/18 01:12:03;;;;;;;4.43;2.95;;;;;;;4.19;75.75;90441.25;2044396;70;20154;-82
2024/01/18 01:14:29;;;;;;;6.40;3.10;;;;;;;4.15;75.64;90436.22;2044256;70;20217;-82
2024/01/18 01:16:55;;;;;;;4.82;2.70;;;;;;;4.16;78.35;90454.34;2044663;70;20155;-82
2024/01/18 01:19:20;;;;;;;4.15;2.80;;;;;;;4.11;79.66;90449.94;2044610;70;20596;-81
2024/01/18 01:21:46;;;;;;;5.63;2.83;;;;;;;4.11;79.20;90455.50;2044885;70;20153;-91
2024/01/18 01:24:11;;;;;;;4.97;2.92;;;;;;;4.20;78.42;90451.75;2044672;70;20178;-85
2024/01/18 01:26:37;;;;;;;4.72;3.05;;;;;;;4.38;77.92;90456.75;2041119;70;20179;-83
2024/01/18 01:29:04;;;;;;;4.57;2.55;;;;;;;4.30;78.41;90459.88;2044733;70;20238;-82
2024/01/18 01:31:30;;;;;;;3.78;2.38;;;;;;;4.39;76.21;90466.53;2044798;70;20158;-86
2024/01/18 01:33:56;;;;;;;4.35;2.70;;;;;;;4.32;78.74;90466.25;2044167;70;20226;-81
2024/01/18 01:36:22;;;;;;;5.05;2.60;;;;;;;4.25;78.67;90447.09;2044208;70;20173;-84
2024/01/18 01:38:48;;;;;;;5.28;2.60;;;;;;;4.32;78.92;90471.84;2045025;70;20733;-84
2024/01/18 01:41:14;;;;;;;3.78;2.30;;;;;;;4.42;79.83;90468.81;2045302;70;20146;-82
2024/01/18 01:43:59;;;;;;;2.60;1.90;;;;;;;4.52;77.95;90476.91;2044999;70;20139;-81
2024/01/18 01:46:26;;;;;;;3.67;1.88;;;;;;;4.52;78.22;90477.63;2044879;70;20209;-80
2024/01/18 01:49:01;;;;;;;2.05;1.20;;;;;;;4.57;77.41;90475.75;2044632;70;20178;-84
2024/01/18 01:51:36;;;;;;;4.20;2.25;;;;;;;4.56;77.42;90482.69;2044699;70;20147;-83
2024/01/18 01:54:05;;;;;;;4.35;2.67;;;;;;;4.41;78.74;90475.00;2044442;70;20170;-81
2024/01/18 01:56:34;;;;;;;3.83;2.42;;;;;;;4.50;77.98;90479.63;2044475;70;20151;-80
2024/01/18 01:59:00;;;;;;;3.20;2.33;;;;;;;4.36;80.14;90476.88;2046658;70;20492;-80
2024/01/18 02:01:26;;;;;;;3.72;2.17;;;;;;;4.41;80.29;90478.50;2044635;70;20161;-80
2024/01/18 02:03:52;;;;;;;3.58;1.83;;;;;;;4.45;78.83;90470.34;2044381;70;20151;-81
2024/01/18 02:06:18;;;;;;;2.33;1.80;;;;;;;4.50;78.89;90466.41;2041190;70;20146;-78
2024/01/18 02:08:45;;;;;;;3.05;1.67;;;;;;;4.53;78.74;90481.13;2043966;70;20147;-79
2024/01/18 02:11:11;;;;;;;2.03;1.58;;;;;;;4.40;81.41;90479.13;2044342;70;20627;-81
2024/01/18 02:13:39;;;;;;;3.05;1.73;;;;;;;4.42;80.93;90479.94;2046913;70;20225;-83
2024/01/18 02:16:05;;;;;;;2.13;1.40;;;;;;;4.44;81.15;90482.09;2046782;70;20143;-78
2024/01/18 02:18:31;;;;;;;1.63;1.23;;;;;;;4.57;79.51;90487.63;2047785;70;20139;-79
2024/01/18 02:20:57;;;;;;;2.47;1.38;;;;;;;4.63;78.91;90484.41;2047628;70;20166;-85
2024/01/18 02:23:28;;;;;;;2.50;1.70;;;;;;;4.40;79.74;90482.66;2047413;70;20181;-81
2024/01/18 02:25:54;;;;;;;3.85;2.25;;;;;;;4.38;79.33;90474.19;2047837;70;20222;-80
2024/01/18 02:28:19;;;;;;;4.60;2.40;;;;;;;4.37;79.97;90481.09;2048457;70;20155;-79
2024/01/18 02:30:45;;;;;;;4.95;2.63;;;;;;;4.53;79.42;90495.06;2047751;70;20210;-79
2024/01/18 02:33:11;;;;;;;7.38;2.53;;;;;;;4.55;78.54;90500.75;2047386;70;20276;-79
2024/01/18 02:35:37;;;;;;;3.97;1.90;;;;;;;4.44;78.02;90470.94;2048074;70;20233;-81
2024/01/18 02:38:04;;;;;;;5.05;2.28;;;;;;;4.53;79.12;90481.84;2048179;70;20167;-80
2024/01/18 02:40:30;;;;;;;2.83;1.70;;;;;;;4.54;77.67;90488.88;2047453;70;20218;-80
2024/01/18 02:42:55;;;;;;;3.78;1.98;;;;;;;4.40;79.63;90487.47;2045100;70;20150;-82
2024/01/18 02:45:21;;;;;;;3.05;2.28;;;;;;;4.54;79.06;90493.75;2048398;70;20150;-82
2024/01/18 02:47:47;;;;;;;3.38;1.70;;;;;;;4.43;79.63;90481.38;2047845;70;20127;-83
2024/01/18 02:50:12;;;;;;;4.43;1.90;;;;;;;4.48;79.20;90479.50;2049459;70;20146;-80
2024/01/18 02:52:39;;;;;;;3.03;1.92;;;;;;;4.54;79.59;90483.31;2049990;70;20172;-85
2024/01/18 02:55:06;;;;;;;3.90;2.00;;;;;;;4.46;80.38;90485.72;2049984;70;20165;-81
2024/01/18 02:57:31;;;;;;;4.35;2.38;;;;;;;4.20;82.32;90481.66;2049970;70;20186;-81
2024/01/18 02:59:57;;;;;;;5.88;2.30;;;;;;;4.11;82.00;90480.56;2049630;70;20143;-82
2024/01/18 03:02:23;;;;;;;2.80;1.90;;;;;;;4.38;80.73;90474.19;2048861;70;20178;-79
2024/01/18 03:04:48;;;;;;;2.15;1.30;;;;;;;4.33;78.86;90476.06;2050268;70;20682;-79
2024/01/18 03:07:14;;;;;;;2.15;1.45;;;;;;;4.43;79.64;90486.94;2049899;70;20151;-80
2024/01/18 03:09:41;;;;;;;2.58;1.80;;;;;;;4.34;82.10;90477.50;2049309;70;20225;-81
2024/01/18 03:12:07;;;;;;;1.80;1.40;;;;;;;4.48;81.86;90485.06;2049261;70;20526;-83
2024/01/18 03:14:33;;;;;;;2.67;1.70;;;;;;;4.44;80.91;90484.88;2049682;70;20142;-82
2024/01/18 03:16:59;;;;;;;3.17;1.83;;;;;;;4.61;80.90;90472.44;2049792;70;20149;-84
2024/01/18 03:19:24;;;;;;;2.47;1.60;;;;;;;4.56;80.63;90466.69;2048468;70;20230;-85
2024/01/18 03:21:50;;;;;;;2.97;1.67;;;;;;;4.54;80.07;90454.72;2048498;70;20158;-85
2024/01/18 03:24:16;;;;;;;3.00;1.80;;;;;;;4.60;79.43;90455.00;2048802;70;20150;-81
2024/01/18 03:26:41;;;;;;;2.95;1.63;;;;;;;4.49;80.50;90442.69;2048509;70;20166;-83
2024/01/18 03:29:08;;;;;;;3.30;2.35;;;;;;;4.47;79.68;90447.44;2048669;70;20587;-82
2024/01/18 03:31:34;;;;;;;2.85;1.58;;;;;;;4.42;79.93;90446.53;2048578;70;20157;-82
2024/01/18 03:33:59;;;;;;;2.70;1.90;;;;;;;4.50;80.47;90440.59;2048874;70;20139;-81
2024/01/18 03:36:25;;;;;;;2.72;2.03;;;;;;;4.32;82.40;90435.63;2048595;70;20145;-83
2024/01/18 03:38:51;;;;;;;2.25;1.77;;;;;;;4.51;79.02;90436.47;2048474;70;20139;-82
2024/01/18 03:41:16;;;;;;;2.92;1.83;;;;;;;4.37;82.01;90428.19;2049184;70;20131;-81
2024/01/18 03:43:42;;;;;;;2.35;1.85;;;;;;;4.47;82.23;90442.56;2048522;70;20165;-81
2024/01/18 03:46:15;;;;;;;2.40;1.70;;;;;;;4.52;80.49;90443.47;2048741;70;20666;-82
2024/01/18 03:48:42;;;;;;;2.13;1.42;;;;;;;4.64;79.83;90444.03;2048703;70;20158;-86
2024/01/18 03:51:07;;;;;;;2.42;1.15;;;;;;;4.48;79.59;90440.50;2048575;70;20226;-83
2024/01/18 03:53:34;;;;;;;1.50;1.20;;;;;;;4.43;79.23;90434.03;2048091;70;20233;-87
2024/01/18 03:56:00;;;;;;;1.75;1.35;;;;;;;4.46;80.25;90435.56;2047850;70;20143;-84
2024/01/18 03:58:26;;;;;;;1.75;1.35;;;;;;;4.40;81.56;90446.44;2047998;70;20139;-88
2024/01/18 04:00:51;;;;;;;2.55;1.63;;;;;;;4.51;80.68;90439.97;2048720;70;20172;-82
2024/01/18 04:03:17;;;;;;;3.88;2.00;;;;;;;4.47;81.49;90441.84;2048091;70;20151;-83
2024/01/18 04:05:43;;;;;;;3.15;1.73;;;;;;;4.54;80.90;90443.59;2048659;70;20138;-81
2024/01/18 04:08:09;;;;;;;4.68;2.00;;;;;;;4.62;80.29;90448.78;2048480;70;20157;-81
2024/01/18 04:10:35;;;;;;;3.30;2.10;;;;;;;4.55;78.90;90433.88;2048429;70;20143;-81
2024/01/18 04:13:02;;;;;;;3.00;2.00;;;;;;;4.52;79.93;90437.91;2048388;70;20188;-81
2024/01/18 04:15:27;;;;;;;2.40;1.70;;;;;;;4.44;81.85;90443.81;2048367;70;20611;-82
2024/01/18 04:17:53;;;;;;;2.72;2.00;;;;;;;4.53;80.88;90437.28;2048298;70;20158;-81
2024/01/18 04:20:23;;;;;;;3.13;2.22;;;;;;;4.54;80.15;90432.44;2048237;70;20596;-81
2024/01/18 04:22:48;;;;;;;2.05;1.48;;;;;;;4.49;80.41;90439.16;2048383;70;20158;-81
2024/01/18 04:25:14;;;;;;;2.88;1.30;;;;;;;4.45;80.13;90444.56;2048295;70;20217;-82
2024/01/18 04:27:40;;;;;;;3.45;1.75;;;;;;;4.07;82.91;90460.88;2048142;70;20138;-81
2024/01/18 04:30:06;;;;;;;3.30;1.98;;;;;;;4.14;82.10;90445.91;2048256;70;20154;-82
2024/01/18 04:32:32;;;;;;;3.47;1.67;;;;;;;4.33;80.81;90464.19;2048253;70;20173;-82
2024/01/18 04:34:58;;;;;;;5.40;2.00;;;;;;;4.26;81.18;90468.78;2047647;70;20143;-80
2024/01/18 04:37:23;;;;;;;1.60;1.27;;;;;;;4.27;81.07;90475.78;2047762;70;20151;-81
2024/01/18 04:39:49;;;;;;;6.53;1.80;;;;;;;4.28;80.30;90482.78;2048188;70;20138;-83
2024/01/18 04:42:16;;;;;;;3.25;2.00;;;;;;;4.06;81.39;90465.00;2047462;70;20151;-82
2024/01/18 04:44:42;;;;;;;6.15;2.80;;;;;;;4.17;81.14;90475.31;2048173;70;20161;-80
2024/01/18 04:47:08;;;;;;;3.97;2.33;;;;;;;3.86;83.27;90491.88;2048142;70;20151;-82
2024/01/18 04:49:33;;;;;;;8.57;2.53;;;;;;;4.01;82.20;90483.56;2048169;70;20570;-82
2024/01/18 04:52:00;;;;;;;4.28;2.85;;;;;;;4.09;81.78;90463.78;2048175;70;20142;-82
2024/01/18 04:54:25;;;;;;;3.38;2.17;;;;;;;4.16;80.77;90476.63;2044897;70;20143;-83
2024/01/18 04:56:51;;;;;;;3.10;1.85;;;;;;;4.06;81.50;90460.16;2047978;70;20254;-84
2024/01/18 04:59:17;;;;;;;1.83;1.63;;;;;;;4.19;81.19;90483.75;2048160;70;20150;-82
2024/01/18 05:01:43;;;;;;;3.90;2.30;;;;;;;4.13;81.68;90479.97;2048231;70;20147;-81
2024/01/18 05:04:09;;;;;;;9.82;4.10;;;;;;;3.94;82.52;90481.09;2048145;70;20177;-82
2024/01/18 05:06:35;;;;;;;8.85;3.65;;;;;;;3.91;82.59;90482.38;2048148;70;20603;-81
2024/01/18 05:09:01;;;;;;;5.75;3.13;;;;;;;3.56;84.55;90489.72;2047572;70;20139;-81
2024/01/18 05:11:26;;;;;;;5.32;2.97;;;;;;;3.95;82.34;90482.56;2048439;70;20576;-83
2024/01/18 05:13:53;;;;;;;6.40;3.22;;;;;;;4.01;81.58;90486.38;2048144;70;20526;-82
2024/01/18 05:16:19;;;;;;;5.28;3.10;;;;;;;3.99;81.23;90480.72;2048078;70;20146;-84
2024/01/18 05:18:45;;;;;;;8.20;3.63;;;;;;;3.96;81.54;90490.28;2048197;70;20222;-82
2024/01/18 05:21:10;;;;;;;7.53;3.85;;;;;;;3.85;82.76;90495.97;2047473;70;20142;-81
2024/01/18 05:23:36;;;;;;;20.10;10.48;;;;;;;4.01;80.74;90491.94;2044774;70;20609;-81
2024/01/18 05:26:03;;;;;;;11.93;6.80;;;;;;;3.67;82.96;90479.84;2047372;70;20174;-81
2024/01/18 05:28:29;;;;;;;14.82;6.75;;;;;;;3.71;83.80;90471.69;2047391;70;20149;-80
2024/01/18 05:30:57;;;;;;;16.90;6.70;;;;;;;3.96;82.53;90470.81;2048127;70;20150;-83
2024/01/18 05:33:23;;;;;;;8.43;4.53;;;;;;;3.49;85.12;90453.88;2048151;70;20710;-83
2024/01/18 05:35:49;;;;;;;6.90;3.58;;;;;;;3.72;82.77;90452.94;2048012;70;20150;-81
2024/01/18 05:38:14;;;;;;;4.40;2.75;;;;;;;3.88;82.25;90462.06;2048200;70;20677;-81
2024/01/18 05:40:40;;;;;;;10.95;6.00;;;;;;;3.57;83.20;90429.25;2050341;70;20143;-80
2024/01/18 05:43:06;;;;;;;28.27;13.60;;;;;;;3.79;82.69;90452.59;2051612;70;20159;-80
2024/01/18 05:45:31;;;;;;;18.92;8.90;;;;;;;3.79;83.36;90460.94;2052066;70;20213;-80
2024/01/18 05:47:57;;;;;;;9.05;4.90;;;;;;;3.75;82.17;90462.81;2049721;70;20154;-81
2024/01/18 05:50:23;;;;;;;5.95;3.10;;;;;;;3.85;81.82;90470.94;2049451;70;20174;-81
2024/01/18 05:52:48;;;;;;;5.88;3.40;;;;;;;3.90;81.64;90470.53;2048809;70;20205;-82
2024/01/18 05:55:14;;;;;;;3.40;1.85;;;;;;;3.91;81.99;90457.31;2048160;70;20158;-84
2024/01/18 05:57:41;;;;;;;17.35;8.75;;;;;;;3.42;84.23;90463.97;2044648;70;20629;-84
2024/01/18 06:00:07;;;;;;;24.63;8.38;;;;;;;3.57;84.19;90470.97;2048167;70;20159;-81
2024/01/18 06:02:33;;;;;;;20.70;8.98;;;;;;;3.73;83.29;90459.94;2047976;70;20165;-81
2024/01/18 06:04:58;;;;;;;15.07;7.60;;;;;;;3.87;82.24;90463.41;2048113;70;20665;-82
2024/01/18 06:07:24;;;;;;;22.42;11.77;;;;;;;3.52;84.12;90442.22;2047469;70;20143;-82
2024/01/18 06:09:50;;;;;;;12.38;7.30;;;;;;;3.54;83.67;90459.03;2047545;70;20146;-82
2024/01/18 06:12:16;;;;;;;17.88;7.97;;;;;;;3.60;84.26;90469.75;2047817;70;20157;-81
2024/01/18 06:14:42;;;;;;;14.88;6.95;;;;;;;3.80;81.75;90461.66;2047957;70;20589;-82
2024/01/18 06:17:07;;;;;;;9.68;5.57;;;;;;;3.78;82.66;90453.94;2047383;70;20496;-84
2024/01/18 06:19:33;;;;;;;13.88;7.88;;;;;;;3.40;84.68;90465.94;2048004;70;20246;-81
2024/01/18 06:22:00;;;;;;;15.70;6.38;;;;;;;3.70;83.77;90461.16;2048045;70;20221;-82
2024/01/18 06:24:27;;;;;;;13.32;6.55;;;;;;;3.78;82.33;90453.94;2047478;70;20135;-82
2024/01/18 06:26:53;;;;;;;25.25;12.60;;;;;;;3.93;80.87;90451.84;2047857;70;20149;-83
2024/01/18 06:29:18;;;;;;;18.00;9.68;;;;;;;3.59;84.23;90454.38;2047352;70;20147;-84
2024/01/18 06:31:44;;;;;;;17.92;8.32;;;;;;;3.80;82.76;90447.75;2047872;70;20234;-84
2024/01/18 06:34:10;;;;;;;13.70;7.43;;;;;;;3.87;82.12;90459.91;2048078;70;20638;-82
2024/01/18 06:36:37;;;;;;;10.70;6.80;;;;;;;3.93;82.09;90443.50;2048013;70;20193;-90
2024/01/18 06:39:03;;;;;;;11.98;5.90;;;;;;;3.95;82.06;90435.97;2047890;70;20590;-83
2024/01/18 06:41:30;;;;;;;12.05;7.90;;;;;;;3.39;85.13;90431.88;2047420;70;20595;-80
2024/01/18 06:43:55;;;;;;;21.77;9.50;;;;;;;3.10;87.42;90440.09;2048048;70;20634;-82
2024/01/18 06:46:22;;;;;;;15.73;8.50;;;;;;;3.62;85.10;90438.50;2047901;70;20241;-82
2024/01/18 06:48:53;;;;;;;16.63;9.18;;;;;;;3.41;85.11;90462.53;2047948;70;20183;-81
2024/01/18 06:51:22;;;;;;;12.35;7.63;;;;;;;3.72;83.33;90458.50;2048060;70;20178;-82
2024/01/18 06:53:47;;;;;;;15.27;8.07;;;;;;;3.63;82.15;90435.13;2047912;70;20238;-84
2024/01/18 06:56:16;;;;;;;13.40;8.00;;;;;;;3.69;82.92;90451.38;2047721;70;20222;-83
2024/01/18 06:58:43;;;;;;;13.38;7.43;;;;;;;3.79;82.39;90449.09;2047900;70;20621;-83
2024/01/18 07:01:10;;;;;;;14.65;7.70;;;;;;;3.79;82.48;90441.47;2048016;70;20166;-84
2024/01/18 07:03:36;;;;;;;10.77;6.10;;;;;;;3.92;81.53;90442.78;2047875;70;20135;-81
2024/01/18 07:06:03;;;;;;;8.77;5.75;;;;;;;3.74;82.42;90439.09;2047897;70;20769;-82
2024/01/18 07:08:29;;;;;;;13.40;6.82;;;;;;;3.69;83.22;90456.94;2048017;70;20254;-81
2024/01/18 07:10:55;;;;;;;7.03;4.72;;;;;;;3.87;82.14;90446.72;2047743;70;20143;-85
2024/01/18 07:13:21;;;;;;;9.93;5.20;;;;;;;3.89;81.67;90457.94;2048536;70;20511;-82
2024/01/18 07:15:47;;;;;;;14.18;8.25;;;;;;;3.63;83.51;90445.53;2048354;70;20177;-81
2024/01/18 07:18:13;;;;;;;13.80;7.88;;;;;;;3.83;82.62;90447.22;2048459;70;20176;-79
2024/01/18 07:20:39;;;;;;;18.83;8.90;;;;;;;3.79;82.34;90444.25;2048314;70;20466;-79
2024/01/18 07:23:06;;;;;;;15.50;8.70;;;;;;;3.94;81.24;90448.44;2048502;70;20213;-78
2024/01/18 07:25:32;;;;;;;14.60;9.05;;;;;;;3.44;84.63;90441.84;2047959;70;20170;-78
2024/01/18 07:27:58;;;;;;;17.10;9.18;;;;;;;3.85;83.07;90465.34;2048444;70;20158;-79
2024/01/18 07:30:23;;;;;;;15.10;7.03;;;;;;;3.28;83.86;90447.31;2048417;70;20230;-79
2024/01/18 07:32:49;;;;;;;17.95;8.05;;;;;;;3.75;83.38;90452.38;2048287;70;20153;-81
2024/01/18 07:35:15;;;;;;;12.48;7.22;;;;;;;3.67;83.12;90443.66;2048339;70;20239;-81
2024/01/18 07:37:41;;;;;;;16.77;9.98;;;;;;;3.37;85.97;90481.09;2048409;70;20156;-80
2024/01/18 07:40:07;;;;;;;16.25;9.13;;;;;;;3.85;84.31;90482.06;2047861;70;20139;-81
2024/01/18 07:42:33;;;;;;;20.05;9.43;;;;;;;4.04;82.78;90470.50;2048178;70;20167;-81
2024/01/18 07:44:58;;;;;;;13.48;7.68;;;;;;;4.10;82.42;90475.63;2048606;70;20567;-81
2024/01/18 07:47:24;;;;;;;11.60;7.57;;;;;;;4.23;82.34;90461.66;2051909;70;20623;-78
2024/01/18 07:49:50;;;;;;;11.85;7.53;;;;;;;4.26;81.25;90454.09;2050665;70;20147;-79
2024/01/18 07:52:20;;;;;;;13.27;7.85;;;;;;;4.29;81.75;90470.28;2048853;70;20154;-81
2024/01/18 07:54:49;;;;;;;13.50;6.90;;;;;;;4.43;81.55;90480.66;2048536;70;20154;-83
2024/01/18 07:57:14;;;;;;;10.98;7.13;;;;;;;4.48;81.63;90480.22;2048274;70;20150;-82
2024/01/18 07:59:40;;;;;;;38.95;20.10;;;;;;;4.05;82.29;90480.28;2048278;70;20138;-81
2024/01/18 08:02:05;;;;;;;35.55;19.17;;;;;;;4.24;82.23;90501.38;2048298;70;20154;-81
2024/01/18 08:04:31;;;;;;;27.35;15.32;;;;;;;4.06;82.95;90507.50;2048397;70;20249;-84
2024/01/18 08:06:57;;;;;;;36.60;18.73;;;;;;;4.37;81.75;90497.81;2048247;70;20133;-80
2024/01/18 08:09:22;;;;;;;39.67;18.48;;;;;;;4.53;81.35;90489.50;2048392;70;20202;-78
2024/01/18 08:11:49;;;;;;;36.83;19.95;;;;;;;4.62;81.36;90493.38;2048348;70;20241;-81
2024/01/18 08:14:14;;;;;;;41.85;22.60;;;;;;;4.65;81.36;90500.50;2048492;70;20575;-81
2024/01/18 08:16:40;;;;;;;45.00;22.35;;;;;;;4.72;81.07;90514.09;2048703;70;20233;-81
2024/01/18 08:19:07;;;;;;;39.92;19.02;;;;;;;4.67;80.70;90508.94;2048401;70;20123;-80
2024/01/18 08:21:33;;;;;;;33.55;16.30;;;;;;;4.64;80.05;90499.06;2048117;70;20631;-80
2024/01/18 08:23:58;;;;;;;24.83;12.60;;;;;;;4.42;81.67;90493.16;2048322;70;20153;-81
2024/01/18 08:26:24;;;;;;;29.17;16.27;;;;;;;4.49;81.79;90498.41;2047704;70;20134;-81
2024/01/18 08:28:50;;;;;;;23.95;13.50;;;;;;;4.21;83.65;90500.53;2047858;70;20150;-80
2024/01/18 08:31:15;;;;;;;26.05;14.43;;;;;;;4.53;81.92;90515.28;2048475;70;20138;-81
2024/01/18 08:33:41;;;;;;;23.50;13.18;;;;;;;4.66;81.49;90508.22;2048349;70;20288;-82
2024/01/18 08:36:08;;;;;;;22.27;13.23;;;;;;;4.67;81.18;90523.59;2048412;70;20206;-80
2024/01/18 08:38:34;;;;;;;30.95;14.88;;;;;;;4.75;81.36;90518.41;2048242;70;20158;-81
2024/01/18 08:40:59;;;;;;;23.48;13.18;;;;;;;4.68;81.83;90488.81;2048280;70;20146;-80
2024/01/18 08:43:27;;;;;;;17.27;10.68;;;;;;;4.35;83.55;90478.22;2048138;70;20165;-80
2024/01/18 08:45:53;;;;;;;16.90;9.55;;;;;;;4.83;82.32;90474.19;2048335;70;20170;-81
2024/01/18 08:48:20;;;;;;;20.80;11.75;;;;;;;5.16;79.96;90477.72;2048278;70;20147;-78
2024/01/18 08:50:46;;;;;;;18.90;10.45;;;;;;;5.26;79.85;90478.16;2047707;70;20155;-79
2024/01/18 08:53:13;;;;;;;12.32;7.78;;;;;;;5.17;80.42;90473.56;2048258;70;20530;-81
2024/01/18 08:55:40;;;;;;;17.70;10.10;;;;;;;4.77;83.12;90475.97;2047705;70;20625;-82
2024/01/18 08:58:06;;;;;;;13.18;7.22;;;;;;;5.05;81.71;90457.03;2047637;70;20607;-80
2024/01/18 09:00:32;;;;;;;12.05;8.13;;;;;;;5.35;81.18;90458.34;2047808;70;20158;-82
2024/01/18 09:02:58;;;;;;;15.40;9.20;;;;;;;5.65;80.57;90474.97;2048092;70;20177;-79
2024/01/18 09:05:23;;;;;;;19.67;10.82;;;;;;;5.98;79.39;90470.78;2047638;70;20151;-79
2024/01/18 09:07:49;;;;;;;15.65;8.93;;;;;;;6.14;78.69;90488.22;2048101;70;20131;-79
2024/01/18 09:10:15;;;;;;;17.23;10.13;;;;;;;5.18;81.26;90488.94;2048354;70;20147;-81
2024/01/18 09:12:41;;;;;;;16.88;9.82;;;;;;;6.14;80.79;90482.63;2047985;70;20141;-81
2024/01/18 09:15:07;;;;;;;14.13;8.50;;;;;;;6.34;81.24;90480.63;2048068;70;20154;-82
2024/01/18 09:17:33;;;;;;;12.57;7.25;;;;;;;6.49;79.08;90479.13;2047620;70;20178;-80
2024/01/18 09:19:58;;;;;;;14.43;8.68;;;;;;;6.81;78.54;90487.34;2048166;70;20143;-83
2024/01/18 09:22:24;;;;;;;14.80;8.15;;;;;;;7.24;77.18;90506.47;2048053;70;20534;-82
2024/01/18 09:24:49;;;;;;;15.20;9.68;;;;;;;6.34;77.72;90519.03;2048192;70;20138;-81
2024/01/18 09:27:15;;;;;;;22.08;11.43;;;;;;;6.94;77.86;90502.53;2048057;70;20158;-83
2024/01/18 09:29:41;;;;;;;43.55;22.83;;;;;;;7.34;76.81;90498.47;2048170;70;20313;-80
2024/01/18 09:32:06;;;;;;;34.00;18.52;;;;;;;7.63;76.59;90503.00;2048009;70;20162;-82
2024/01/18 09:34:35;;;;;;;27.52;16.33;;;;;;;7.69;74.31;90493.38;2048131;70;20584;-80
2024/01/18 09:37:02;;;;;;;23.48;13.63;;;;;;;7.53;75.58;90494.25;2050682;70;20209;-80
2024/01/18 09:39:27;;;;;;;22.05;11.25;;;;;;;7.61;74.51;90502.22;2050405;70;20173;-80
2024/01/18 09:41:54;;;;;;;16.67;9.30;;;;;;;7.85;74.21;90514.28;2048874;70;20143;-80
2024/01/18 09:44:31;;;;;;;18.00;10.93;;;;;;;8.32;73.09;90512.38;2048293;70;20584;-81
2024/01/18 09:46:58;;;;;;;14.35;8.13;;;;;;;8.14;73.44;90524.41;2048142;70;20206;-80
2024/01/18 09:49:30;;;;;;;17.27;8.10;;;;;;;8.60;72.59;90518.94;2048087;70;20197;-81
2024/01/18 09:51:58;;;;;;;11.98;7.25;;;;;;;8.89;73.09;90511.47;2048063;70;20250;-81
2024/01/18 09:54:24;;;;;;;14.95;7.68;;;;;;;8.84;71.38;90515.50;2047490;70;20186;-81
2024/01/18 09:56:53;;;;;;;12.88;7.72;;;;;;;8.96;71.07;90504.66;2048057;70;20157;-82
2024/01/18 09:59:21;;;;;;;12.73;7.07;;;;;;;8.85;70.54;90516.94;2048037;70;20150;-82
2024/01/18 10:01:47;;;;;;;9.25;5.90;;;;;;;9.72;69.69;90532.22;2048005;70;20598;-83
2024/01/18 10:04:14;;;;;;;11.38;5.30;;;;;;;9.31;69.12;90516.97;2048148;70;20170;-81
2024/01/18 10:06:43;;;;;;;7.72;4.90;;;;;;;9.30;68.83;90516.25;2049908;70;20143;-80
2024/01/18 10:09:15;;;;;;;6.30;4.28;;;;;;;9.39;68.74;90515.13;2049907;70;20252;-83
2024/01/18 10:11:44;;;;;;;7.75;4.90;;;;;;;9.62;68.25;90519.31;2048852;70;20151;-82
2024/01/18 10:14:09;;;;;;;6.43;4.63;;;;;;;9.83;67.74;90523.41;2048369;70;20503;-81
2024/01/18 10:16:37;;;;;;;6.47;4.60;;;;;;;9.47;68.64;90520.25;2048194;70;20587;-82
2024/01/18 10:19:05;;;;;;;10.65;6.43;;;;;;;9.38;67.81;90513.66;2048042;70;20634;-82
2024/01/18 10:21:35;;;;;;;13.70;8.00;;;;;;;8.74;69.49;90515.88;2048143;70;20150;-82
2024/01/18 10:24:06;;;;;;;15.40;9.82;;;;;;;8.64;70.49;90504.34;2047719;70;20146;-82
2024/01/18 10:26:33;;;;;;;17.38;9.85;;;;;;;8.96;69.69;90487.13;2047407;70;20607;-81
2024/01/18 10:28:58;;;;;;;17.92;10.48;;;;;;;9.23;68.94;90503.38;2048007;70;20237;-82
2024/01/18 10:31:25;;;;;;;15.80;8.40;;;;;;;9.31;68.85;90495.22;2048039;70;20168;-81
2024/01/18 10:33:51;;;;;;;20.00;11.68;;;;;;;9.41;69.11;90487.09;2047651;70;20157;-81
2024/01/18 10:36:18;;;;;;;16.88;10.65;;;;;;;9.75;67.30;90474.69;2048240;70;20775;-81
2024/01/18 10:38:43;;;;;;;16.20;9.73;;;;;;;10.05;67.51;90472.00;2048274;70;20226;-81
2024/01/18 10:41:09;;;;;;;17.05;9.82;;;;;;;9.97;66.20;90472.50;2047605;70;20151;-81
2024/01/18 10:43:35;;;;;;;14.27;8.93;;;;;;;10.28;66.82;90470.53;2048001;70;20159;-81
2024/01/18 10:46:02;;;;;;;14.93;7.75;;;;;;;9.90;66.46;90468.09;2048825;70;20179;-81
2024/01/18 10:48:35;;;;;;;9.68;6.72;;;;;;;10.88;65.56;90464.97;2048653;70;20154;-81
2024/01/18 10:51:04;;;;;;;8.40;5.75;;;;;;;11.58;64.26;90467.25;2048045;70;20143;-81
2024/01/18 10:53:34;;;;;;;6.00;4.20;;;;;;;12.32;61.80;90475.09;2048665;70;20167;-81
2024/01/18 10:56:01;;;;;;;12.75;7.05;;;;;;;10.24;63.68;90476.00;2048389;70;20130;-81
2024/01/18 10:58:26;;;;;;;10.05;6.78;;;;;;;12.08;62.09;90470.41;2048067;70;20149;-81
2024/01/18 11:00:53;;;;;;;12.00;7.15;;;;;;;11.98;60.77;90447.66;2051210;69;20151;-80
2024/01/18 11:03:18;;;;;;;10.50;6.95;;;;;;;12.58;60.22;90443.81;2048394;70;20599;-81
2024/01/18 11:05:46;;;;;;;9.90;5.93;;;;;;;12.63;58.45;90434.03;2048438;70;20154;-80
2024/01/18 11:08:13;;;;;;;14.60;8.73;;;;;;;12.46;58.67;90442.22;2048237;70;20169;-81
2024/01/18 11:10:42;;;;;;;14.70;9.20;;;;;;;11.91;60.11;90437.63;2047892;70;20160;-82
2024/01/18 11:13:09;;;;;;;12.00;8.35;;;;;;;11.55;60.65;90437.63;2048107;70;20154;-83
2024/01/18 11:15:37;;;;;;;10.45;6.57;;;;;;;10.89;61.59;90444.59;2048204;70;20591;-81
2024/01/18 11:18:11;;;;;;;9.20;6.32;;;;;;;11.13;62.74;90447.28;2048722;70;20163;-83
2024/01/18 11:20:58;;;;;;;9.73;6.68;;;;;;;11.08;61.87;90442.91;2048845;70;20146;-82
2024/01/18 11:23:33;;;;;;;10.10;6.55;;;;;;;10.18;64.76;90451.97;2050703;70;20512;-80
2024/01/18 11:25:58;;;;;;;11.63;6.75;;;;;;;10.48;63.38;90468.22;2051036;70;20147;-81
2024/01/18 11:28:25;;;;;;;12.35;7.53;;;;;;;9.73;65.63;90461.31;2048369;70;20153;-83
2024/01/18 11:30:52;;;;;;;10.45;7.03;;;;;;;10.50;64.51;90465.47;2048423;70;20234;-85
2024/01/18 11:33:18;;;;;;;11.95;7.28;;;;;;;10.78;63.71;90467.56;2047884;70;20158;-83